createdAt,value
2023-03-13T00:00:01.314Z,10.4
2023-03-13T00:01:00.913Z,10.5
2023-03-13T00:02:01.558Z,10.4
2023-03-13T00:03:01.158Z,10.5
2023-03-13T00:04:01.733Z,10.4
2023-03-13T00:05:01.405Z,10.5
2023-03-13T00:06:00.948Z,10.5
2023-03-13T00:07:01.539Z,10.5
2023-03-13T00:08:01.162Z,10.5
2023-03-13T00:09:01.725Z,10.5
2023-03-13T00:10:01.334Z,10.5
2023-03-13T00:11:00.918Z,10.5
2023-03-13T00:12:01.494Z,10.5
2023-03-13T00:13:01.081Z,10.6
2023-03-13T00:14:01.693Z,10.5
2023-03-13T00:15:01.395Z,10.6
2023-03-13T00:16:00.898Z,10.6
2023-03-13T00:17:01.567Z,10.6
2023-03-13T00:18:01.157Z,10.6
2023-03-13T00:19:01.733Z,10.6
2023-03-13T00:20:01.338Z,10.7
2023-03-13T00:21:00.941Z,10.6
2023-03-13T00:22:01.555Z,10.7
2023-03-13T00:23:01.154Z,10.7
2023-03-13T00:24:00.735Z,10.6
2023-03-13T00:25:01.322Z,10.7
2023-03-13T00:26:00.909Z,10.7
2023-03-13T00:27:01.513Z,10.7
2023-03-13T00:28:01.156Z,10.7
2023-03-13T00:29:00.739Z,10.7
2023-03-13T00:30:01.326Z,10.7
2023-03-13T00:31:01.049Z,10.7
2023-03-13T00:32:01.574Z,10.7
2023-03-13T00:33:01.169Z,10.7
2023-03-13T00:34:00.732Z,10.7
2023-03-13T00:35:01.302Z,10.7
2023-03-13T00:36:00.940Z,10.7
2023-03-13T00:37:01.483Z,10.7
2023-03-13T00:38:01.080Z,10.6
2023-03-13T00:39:01.671Z,10.5
2023-03-13T00:40:01.270Z,10.5
2023-03-13T00:41:00.865Z,10.4
2023-03-13T00:42:01.462Z,10.4
2023-03-13T00:43:01.051Z,10.4
2023-03-13T00:44:01.695Z,10.4
2023-03-13T00:45:01.296Z,10.4
2023-03-13T00:46:00.917Z,10.4
2023-03-13T00:47:01.522Z,10.4
2023-03-13T00:48:01.120Z,10.4
2023-03-13T00:49:01.708Z,10.3
2023-03-13T00:50:01.307Z,10.3
2023-03-13T00:51:00.908Z,10.3
2023-03-13T00:52:01.493Z,10.3
2023-03-13T00:53:01.080Z,10.3
2023-03-13T00:54:01.656Z,10.3
2023-03-13T00:55:01.249Z,10.2
2023-03-13T00:56:00.839Z,10.2
2023-03-13T00:57:01.432Z,10.3
2023-03-13T00:58:01.049Z,10.2
2023-03-13T00:59:01.588Z,10.2
2023-03-13T01:00:01.176Z,10.2
2023-03-13T01:01:00.780Z,10.1
2023-03-13T01:02:01.384Z,10.1
2023-03-13T01:03:01.122Z,10.1
2023-03-13T01:04:01.593Z,10.1
2023-03-13T01:05:01.180Z,10.1
2023-03-13T01:06:00.751Z,10
2023-03-13T01:07:01.345Z,10
2023-03-13T01:08:00.965Z,10
2023-03-13T01:09:01.526Z,9.9
2023-03-13T01:10:01.115Z,9.9
2023-03-13T01:11:01.690Z,9.9
2023-03-13T01:12:01.284Z,9.9
2023-03-13T01:13:00.932Z,9.9
2023-03-13T01:14:01.539Z,9.8
2023-03-13T01:15:01.133Z,9.8
2023-03-13T01:16:00.885Z,9.8
2023-03-13T01:17:01.304Z,9.8
2023-03-13T01:18:00.894Z,9.7
2023-03-13T01:19:01.519Z,9.7
2023-03-13T01:20:01.108Z,9.8
2023-03-13T01:21:01.894Z,9.7
2023-03-13T01:22:01.503Z,9.7
2023-03-13T01:23:00.924Z,9.7
2023-03-13T01:24:01.511Z,9.7
2023-03-13T01:25:01.145Z,9.7
2023-03-13T01:26:01.692Z,9.7
2023-03-13T01:27:01.302Z,9.7
2023-03-13T01:28:00.891Z,9.7
2023-03-13T01:29:01.476Z,9.7
2023-03-13T01:30:01.062Z,9.8
2023-03-13T01:31:01.714Z,9.7
2023-03-13T01:32:01.322Z,9.7
2023-03-13T01:33:00.885Z,9.7
2023-03-13T01:34:01.473Z,9.8
2023-03-13T01:35:01.113Z,9.8
2023-03-13T01:36:01.784Z,9.7
2023-03-13T01:37:01.417Z,9.7
2023-03-13T01:38:00.898Z,9.7
2023-03-13T01:39:01.464Z,9.8
2023-03-13T01:40:01.085Z,9.7
2023-03-13T01:41:01.655Z,9.7
2023-03-13T01:42:01.295Z,9.7
2023-03-13T01:43:00.837Z,9.6
2023-03-13T01:44:01.444Z,9.6
2023-03-13T01:45:01.034Z,9.5
2023-03-13T01:46:01.701Z,9.5
2023-03-13T01:47:01.301Z,9.4
2023-03-13T01:48:00.864Z,9.4
2023-03-13T01:49:01.446Z,9.4
2023-03-13T01:50:01.042Z,9.4
2023-03-13T01:51:01.648Z,9.3
2023-03-13T01:52:01.266Z,9.3
2023-03-13T01:53:00.823Z,9.3
2023-03-13T01:54:01.423Z,9.3
2023-03-13T01:55:01.039Z,9.2
2023-03-13T01:56:01.600Z,9.2
2023-03-13T01:57:01.201Z,9.2
2023-03-13T01:58:00.793Z,9.2
2023-03-13T01:59:01.360Z,9.2
2023-03-13T02:00:00.971Z,9.2
2023-03-13T02:01:01.553Z,9.2
2023-03-13T02:02:01.206Z,9.2
2023-03-13T02:03:01.816Z,9.1
2023-03-13T02:04:01.420Z,9.2
2023-03-13T02:05:00.988Z,9.1
2023-03-13T02:06:01.546Z,9.1
2023-03-13T02:07:01.163Z,9.1
2023-03-13T02:08:01.722Z,9.1
2023-03-13T02:09:01.335Z,9.1
2023-03-13T02:10:00.951Z,9
2023-03-13T02:11:01.513Z,9
2023-03-13T02:12:01.115Z,9
2023-03-13T02:13:01.697Z,9
2023-03-13T02:14:01.293Z,8.9
2023-03-13T02:15:00.899Z,8.9
2023-03-13T02:16:01.594Z,8.9
2023-03-13T02:17:01.238Z,8.9
2023-03-13T02:18:01.686Z,8.9
2023-03-13T02:19:01.277Z,8.9
2023-03-13T02:20:00.869Z,8.8
2023-03-13T02:21:01.444Z,8.9
2023-03-13T02:22:01.054Z,8.9
2023-03-13T02:23:01.648Z,8.8
2023-03-13T02:24:01.251Z,8.8
2023-03-13T02:25:00.848Z,8.9
2023-03-13T02:26:01.394Z,8.9
2023-03-13T02:27:00.980Z,8.9
2023-03-13T02:28:01.584Z,8.9
2023-03-13T02:29:01.182Z,8.9
2023-03-13T02:30:00.775Z,8.8
2023-03-13T02:31:01.407Z,8.9
2023-03-13T02:32:00.983Z,8.9
2023-03-13T02:33:01.664Z,8.9
2023-03-13T02:34:01.201Z,8.9
2023-03-13T02:35:00.807Z,8.9
2023-03-13T02:36:01.464Z,8.9
2023-03-13T02:37:01.020Z,8.9
2023-03-13T02:38:01.607Z,8.9
2023-03-13T02:39:01.227Z,8.8
2023-03-13T02:40:00.784Z,8.9
2023-03-13T02:41:01.340Z,8.9
2023-03-13T02:42:00.949Z,8.9
2023-03-13T02:43:01.517Z,8.9
2023-03-13T02:44:01.133Z,8.9
2023-03-13T02:45:01.703Z,8.9
2023-03-13T02:46:01.314Z,9
2023-03-13T02:47:00.927Z,8.9
2023-03-13T02:48:01.479Z,9
2023-03-13T02:49:01.098Z,9
2023-03-13T02:50:01.659Z,9
2023-03-13T02:51:01.267Z,9
2023-03-13T02:52:00.874Z,9.1
2023-03-13T02:53:01.440Z,9.1
2023-03-13T02:54:01.059Z,9.1
2023-03-13T02:55:01.708Z,9.1
2023-03-13T02:56:01.272Z,9.2
2023-03-13T02:57:00.851Z,9.2
2023-03-13T02:58:01.428Z,9.2
2023-03-13T02:59:01.018Z,9.2
2023-03-13T03:00:01.622Z,9.2
2023-03-13T03:01:01.243Z,9.2
2023-03-13T03:02:00.806Z,9.2
2023-03-13T03:03:01.396Z,9.2
2023-03-13T03:04:01.055Z,9.2
2023-03-13T03:05:01.590Z,9.3
2023-03-13T03:06:01.187Z,9.3
2023-03-13T03:07:00.772Z,9.3
2023-03-13T03:08:01.345Z,9.3
2023-03-13T03:09:00.934Z,9.3
2023-03-13T03:10:01.522Z,9.4
2023-03-13T03:11:01.142Z,9.4
2023-03-13T03:12:01.737Z,9.4
2023-03-13T03:13:01.322Z,9.4
2023-03-13T03:14:00.943Z,9.5
2023-03-13T03:15:01.526Z,9.5
2023-03-13T03:16:01.187Z,9.5
2023-03-13T03:17:00.806Z,9.6
2023-03-13T03:18:01.266Z,9.6
2023-03-13T03:19:00.852Z,9.6
2023-03-13T03:20:01.437Z,9.7
2023-03-13T03:21:01.029Z,9.6
2023-03-13T03:22:01.612Z,9.7
2023-03-13T03:23:01.199Z,9.7
2023-03-13T03:24:00.784Z,9.7
2023-03-13T03:25:01.344Z,9.7
2023-03-13T03:26:00.933Z,9.7
2023-03-13T03:27:01.549Z,9.7
2023-03-13T03:28:01.219Z,9.8
2023-03-13T03:29:01.717Z,9.8
2023-03-13T03:30:01.328Z,9.8
2023-03-13T03:31:00.920Z,9.8
2023-03-13T03:32:01.562Z,9.8
2023-03-13T03:33:01.301Z,9.8
2023-03-13T03:34:00.734Z,9.8
2023-03-13T03:35:01.338Z,9.8
2023-03-13T03:36:00.961Z,9.8
2023-03-13T03:37:01.502Z,9.8
2023-03-13T03:38:01.116Z,9.8
2023-03-13T03:39:01.663Z,9.8
2023-03-13T03:40:01.277Z,9.9
2023-03-13T03:41:00.871Z,9.9
2023-03-13T03:42:01.461Z,10
2023-03-13T03:43:01.074Z,10
2023-03-13T03:44:01.632Z,9.9
2023-03-13T03:45:01.244Z,9.9
2023-03-13T03:46:00.806Z,9.9
2023-03-13T03:47:01.403Z,9.9
2023-03-13T03:48:01.013Z,9.9
2023-03-13T03:49:01.591Z,10
2023-03-13T03:50:01.218Z,10
2023-03-13T03:51:00.794Z,10
2023-03-13T03:52:01.364Z,10
2023-03-13T03:53:00.967Z,10.1
2023-03-13T03:54:01.541Z,10.1
2023-03-13T03:55:01.149Z,10.2
2023-03-13T03:56:01.734Z,10.2
2023-03-13T03:57:01.334Z,10.2
2023-03-13T03:58:00.939Z,10.3
2023-03-13T03:59:01.532Z,10.3
2023-03-13T04:00:01.150Z,10.3
2023-03-13T04:01:01.732Z,10.4
2023-03-13T04:02:01.366Z,10.4
2023-03-13T04:03:01.023Z,10.5
2023-03-13T04:04:01.533Z,10.5
2023-03-13T04:05:01.142Z,10.6
2023-03-13T04:06:01.733Z,10.6
2023-03-13T04:07:01.356Z,10.6
2023-03-13T04:08:00.960Z,10.5
2023-03-13T04:09:01.557Z,10.5
2023-03-13T04:10:01.190Z,10.4
2023-03-13T04:11:00.764Z,10.4
2023-03-13T04:12:01.367Z,10.4
2023-03-13T04:13:00.955Z,10.4
2023-03-13T04:14:01.524Z,10.4
2023-03-13T04:15:01.144Z,10.3
2023-03-13T04:16:01.690Z,10.3
2023-03-13T04:17:01.380Z,10.3
2023-03-13T04:18:01.047Z,10.2
2023-03-13T04:19:01.528Z,10.3
2023-03-13T04:20:01.125Z,10.3
2023-03-13T04:21:01.707Z,10.3
2023-03-13T04:22:01.313Z,10.3
2023-03-13T04:23:00.924Z,10.3
2023-03-13T04:24:01.480Z,10.2
2023-03-13T04:25:01.075Z,10.3
2023-03-13T04:26:01.650Z,10.3
2023-03-13T04:27:01.255Z,10.3
2023-03-13T04:28:00.808Z,10.3
2023-03-13T04:29:01.382Z,10.3
2023-03-13T04:30:00.984Z,10.3
2023-03-13T04:31:01.644Z,10.2
2023-03-13T04:32:01.209Z,10.2
2023-03-13T04:33:00.895Z,10.2
2023-03-13T04:34:01.348Z,10.3
2023-03-13T04:35:00.974Z,10.3
2023-03-13T04:36:01.555Z,10.3
2023-03-13T04:37:01.189Z,10.4
2023-03-13T04:38:00.765Z,10.3
2023-03-13T04:39:01.344Z,10.4
2023-03-13T04:40:00.936Z,10.4
2023-03-13T04:41:01.506Z,10.4
2023-03-13T04:42:01.115Z,10.4
2023-03-13T04:43:01.680Z,10.5
2023-03-13T04:44:01.273Z,10.5
2023-03-13T04:45:00.893Z,10.5
2023-03-13T04:46:01.511Z,10.5
2023-03-13T04:47:01.126Z,10.6
2023-03-13T04:48:01.686Z,10.6
2023-03-13T04:49:01.278Z,10.7
2023-03-13T04:50:00.891Z,10.6
2023-03-13T04:51:01.451Z,10.7
2023-03-13T04:52:01.059Z,10.6
2023-03-13T04:53:01.629Z,10.6
2023-03-13T04:54:01.218Z,10.6
2023-03-13T04:55:00.791Z,10.6
2023-03-13T04:56:01.384Z,10.7
2023-03-13T04:57:00.978Z,10.6
2023-03-13T04:58:01.558Z,10.5
2023-03-13T04:59:01.154Z,10.6
2023-03-13T05:00:01.736Z,10.6
2023-03-13T05:01:01.355Z,10.6
2023-03-13T05:02:00.939Z,10.6
2023-03-13T05:03:01.551Z,10.6
2023-03-13T05:04:01.143Z,10.6
2023-03-13T05:05:01.808Z,10.7
2023-03-13T05:06:01.420Z,10.7
2023-03-13T05:07:00.968Z,10.7
2023-03-13T05:08:01.532Z,10.7
2023-03-13T05:09:01.127Z,10.7
2023-03-13T05:10:01.695Z,10.7
2023-03-13T05:11:01.303Z,10.8
2023-03-13T05:12:00.910Z,10.7
2023-03-13T05:13:01.489Z,10.7
2023-03-13T05:14:01.084Z,10.8
2023-03-13T05:15:01.662Z,10.7
2023-03-13T05:16:01.335Z,10.8
2023-03-13T05:17:00.898Z,10.8
2023-03-13T05:18:01.613Z,10.8
2023-03-13T05:19:01.147Z,10.9
2023-03-13T05:20:01.703Z,10.9
2023-03-13T05:21:01.295Z,10.8
2023-03-13T05:22:00.880Z,10.9
2023-03-13T05:23:01.497Z,10.9
2023-03-13T05:24:01.117Z,10.9
2023-03-13T05:25:01.678Z,10.9
2023-03-13T05:26:01.263Z,10.9
2023-03-13T05:27:00.847Z,10.9
2023-03-13T05:28:01.453Z,10.9
2023-03-13T05:29:01.042Z,11
2023-03-13T05:30:01.611Z,11
2023-03-13T05:31:01.276Z,11
2023-03-13T05:32:00.789Z,11.1
2023-03-13T05:33:01.505Z,11.1
2023-03-13T05:34:01.031Z,11.1
2023-03-13T05:35:01.642Z,11.1
2023-03-13T05:36:01.371Z,11.1
2023-03-13T05:37:00.861Z,11
2023-03-13T05:38:01.415Z,11
2023-03-13T05:39:01.006Z,11
2023-03-13T05:40:01.585Z,11
2023-03-13T05:41:01.188Z,11
2023-03-13T05:42:00.788Z,11
2023-03-13T05:43:01.354Z,10.9
2023-03-13T05:44:00.963Z,11
2023-03-13T05:45:01.528Z,11
2023-03-13T05:46:01.256Z,11.1
2023-03-13T05:47:03.946Z,11.1
2023-03-13T05:48:01.280Z,11
2023-03-13T05:49:00.870Z,11.1
2023-03-13T05:50:01.476Z,11
2023-03-13T05:51:01.091Z,11
2023-03-13T05:52:01.671Z,11.1
2023-03-13T05:53:01.260Z,11.1
2023-03-13T05:54:00.912Z,11.1
2023-03-13T05:55:01.479Z,11.2
2023-03-13T05:56:01.065Z,11.2
2023-03-13T05:57:01.650Z,11.2
2023-03-13T05:58:01.237Z,11.2
2023-03-13T05:59:00.827Z,11.2
2023-03-13T06:00:01.390Z,11.2
2023-03-13T06:01:00.980Z,11.2
2023-03-13T06:02:01.563Z,11.2
2023-03-13T06:03:01.149Z,11.3
2023-03-13T06:04:01.864Z,11.4
2023-03-13T06:05:01.632Z,11.4
2023-03-13T06:06:00.968Z,11.4
2023-03-13T06:07:01.564Z,11.4
2023-03-13T06:08:01.155Z,11.4
2023-03-13T06:09:01.755Z,11.4
2023-03-13T06:10:01.347Z,11.4
2023-03-13T06:11:00.941Z,11.4
2023-03-13T06:12:01.507Z,11.5
2023-03-13T06:13:10.652Z,11.5
2023-03-13T06:14:01.671Z,11.5
2023-03-13T06:15:01.283Z,11.6
2023-03-13T06:16:00.929Z,11.6
2023-03-13T06:17:01.475Z,11.6
2023-03-13T06:18:01.072Z,11.7
2023-03-13T06:19:00.788Z,11.7
2023-03-13T06:20:01.370Z,11.7
2023-03-13T06:21:00.887Z,11.8
2023-03-13T06:22:01.472Z,11.7
2023-03-13T06:23:01.093Z,11.8
2023-03-13T06:24:01.658Z,11.8
2023-03-13T06:25:01.279Z,11.8
2023-03-13T06:26:00.832Z,11.9
2023-03-13T06:27:01.409Z,11.9
2023-03-13T06:28:00.999Z,11.9
2023-03-13T06:29:01.587Z,12
2023-03-13T06:30:01.197Z,12
2023-03-13T06:31:00.794Z,12.1
2023-03-13T06:32:01.439Z,12
2023-03-13T06:33:01.119Z,12.1
2023-03-13T06:34:01.586Z,12.1
2023-03-13T06:35:01.192Z,12.2
2023-03-13T06:36:00.808Z,12.3
2023-03-13T06:37:01.388Z,12.3
2023-03-13T06:38:00.986Z,12.4
2023-03-13T06:39:01.605Z,12.4
2023-03-13T06:40:01.192Z,12.4
2023-03-13T06:41:00.779Z,12.4
2023-03-13T06:42:01.375Z,12.5
2023-03-13T06:43:00.983Z,12.5
2023-03-13T06:44:01.569Z,12.6
2023-03-13T06:45:01.227Z,12.6
2023-03-13T06:46:00.815Z,12.6
2023-03-13T06:47:01.507Z,12.6
2023-03-13T06:48:01.054Z,12.6
2023-03-13T06:49:01.636Z,12.6
2023-03-13T06:50:01.241Z,12.6
2023-03-13T06:51:00.822Z,12.7
2023-03-13T06:52:01.417Z,12.8
2023-03-13T06:53:01.006Z,12.8
2023-03-13T06:54:01.594Z,12.8
2023-03-13T06:55:01.233Z,12.9
2023-03-13T06:56:00.771Z,12.9
2023-03-13T06:57:01.352Z,13
2023-03-13T06:58:00.968Z,13
2023-03-13T06:59:01.533Z,13
2023-03-13T07:00:01.140Z,13
2023-03-13T07:01:01.755Z,12.9
2023-03-13T07:02:01.367Z,12.9
2023-03-13T07:03:00.954Z,12.9
2023-03-13T07:04:01.571Z,13
2023-03-13T07:05:01.195Z,13
2023-03-13T07:06:00.788Z,13
2023-03-13T07:07:01.351Z,13
2023-03-13T07:08:00.938Z,13
2023-03-13T07:09:01.512Z,13
2023-03-13T07:10:01.106Z,13
2023-03-13T07:11:01.755Z,13
2023-03-13T07:12:01.351Z,13.1
2023-03-13T07:13:00.931Z,13.1
2023-03-13T07:14:15.110Z,13.1
2023-03-13T07:15:01.074Z,13.1
2023-03-13T07:16:01.704Z,13.1
2023-03-13T07:17:01.327Z,13.1
2023-03-13T07:18:00.936Z,13.2
2023-03-13T07:19:01.502Z,13.3
2023-03-13T07:20:01.243Z,13.2
2023-03-13T07:21:01.697Z,13.3
2023-03-13T07:22:01.289Z,13.2
2023-03-13T07:23:00.900Z,13.2
2023-03-13T07:24:01.449Z,13.1
2023-03-13T07:25:01.064Z,13.2
2023-03-13T07:26:01.638Z,13.2
2023-03-13T07:27:07.070Z,13.3
2023-03-13T07:28:00.791Z,13.3
2023-03-13T07:29:01.388Z,13.3
2023-03-13T07:30:00.984Z,13.3
2023-03-13T07:31:01.569Z,13.3
2023-03-13T07:32:01.283Z,13.3
2023-03-13T07:33:00.953Z,13.4
2023-03-13T07:34:01.366Z,13.4
2023-03-13T07:35:00.968Z,13.4
2023-03-13T07:36:01.595Z,13.4
2023-03-13T07:37:01.201Z,13.3
2023-03-13T07:38:00.769Z,13.4
2023-03-13T07:39:01.370Z,13.4
2023-03-13T07:40:00.959Z,13.4
2023-03-13T07:41:01.550Z,13.4
2023-03-13T07:42:01.139Z,13.6
2023-03-13T07:43:01.744Z,13.6
2023-03-13T07:44:01.350Z,13.6
2023-03-13T07:45:00.942Z,13.6
2023-03-13T07:46:01.604Z,13.6
2023-03-13T07:47:01.200Z,13.7
2023-03-13T07:48:00.758Z,13.7
2023-03-13T07:49:01.368Z,13.7
2023-03-13T07:50:00.990Z,13.7
2023-03-13T07:51:01.548Z,13.6
2023-03-13T07:52:01.138Z,13.7
2023-03-13T07:53:01.737Z,13.7
2023-03-13T07:54:01.384Z,13.7
2023-03-13T07:55:00.947Z,13.7
2023-03-13T07:56:01.543Z,13.6
2023-03-13T07:57:01.134Z,13.6
2023-03-13T07:58:01.726Z,13.7
2023-03-13T07:59:01.366Z,13.7
2023-03-13T08:00:00.945Z,13.7
2023-03-13T08:01:01.541Z,13.6
2023-03-13T08:02:01.161Z,13.6
2023-03-13T08:03:01.790Z,13.6
2023-03-13T08:04:01.429Z,13.7
2023-03-13T08:05:00.933Z,13.7
2023-03-13T08:06:01.541Z,13.7
2023-03-13T08:07:01.162Z,13.7
2023-03-13T08:08:01.712Z,13.8
2023-03-13T08:09:01.315Z,13.8
2023-03-13T08:10:00.911Z,13.7
2023-03-13T08:11:01.505Z,13.7
2023-03-13T08:12:01.132Z,13.7
2023-03-13T08:13:01.666Z,13.8
2023-03-13T08:14:01.269Z,13.7
2023-03-13T08:15:00.910Z,13.7
2023-03-13T08:16:01.433Z,13.7
2023-03-13T08:17:01.083Z,13.8
2023-03-13T08:18:01.614Z,13.8
2023-03-13T08:19:01.238Z,13.8
2023-03-13T08:20:00.881Z,13.7
2023-03-13T08:21:01.351Z,13.8
2023-03-13T08:22:00.951Z,13.8
2023-03-13T08:23:01.522Z,13.8
2023-03-13T08:24:01.182Z,13.8
2023-03-13T08:25:01.709Z,13.8
2023-03-13T08:26:01.313Z,13.8
2023-03-13T08:27:00.914Z,13.8
2023-03-13T08:28:02.508Z,13.8
2023-03-13T08:29:01.177Z,13.8
2023-03-13T08:30:01.722Z,13.8
2023-03-13T08:31:01.350Z,13.8
2023-03-13T08:32:00.969Z,13.8
2023-03-13T08:33:01.609Z,13.8
2023-03-13T08:34:01.220Z,13.8
2023-03-13T08:35:00.792Z,13.8
2023-03-13T08:36:01.380Z,13.8
2023-03-13T08:37:00.992Z,13.9
2023-03-13T08:38:01.563Z,13.8
2023-03-13T08:39:01.159Z,13.8
2023-03-13T08:40:01.744Z,13.9
2023-03-13T08:41:01.348Z,13.8
2023-03-13T08:42:00.962Z,13.9
2023-03-13T08:43:01.509Z,13.8
2023-03-13T08:44:01.102Z,13.8
2023-03-13T08:45:01.696Z,13.8
2023-03-13T08:46:01.396Z,13.8
2023-03-13T08:47:00.994Z,13.8
2023-03-13T08:48:01.497Z,13.8
2023-03-13T08:49:01.094Z,13.8
2023-03-13T08:50:01.684Z,13.8
2023-03-13T08:51:01.282Z,13.8
2023-03-13T08:52:00.870Z,13.9
2023-03-13T08:53:01.425Z,13.9
2023-03-13T08:54:01.013Z,13.9
2023-03-13T08:55:01.605Z,14
2023-03-13T08:56:01.199Z,13.9
2023-03-13T08:57:00.802Z,13.9
2023-03-13T08:58:01.388Z,14
2023-03-13T08:59:01.068Z,14
2023-03-13T09:00:01.570Z,13.9
2023-03-13T09:01:01.164Z,14
2023-03-13T09:02:00.758Z,14
2023-03-13T09:03:01.393Z,13.9
2023-03-13T09:04:03.773Z,13.9
2023-03-13T09:05:01.528Z,13.9
2023-03-13T09:06:01.126Z,13.9
2023-03-13T09:07:01.700Z,13.9
2023-03-13T09:08:01.308Z,13.9
2023-03-13T09:09:00.916Z,13.9
2023-03-13T09:10:01.480Z,13.9
2023-03-13T09:11:01.104Z,14
2023-03-13T09:12:01.655Z,14.1
2023-03-13T09:13:01.280Z,14.3
2023-03-13T09:14:00.861Z,14.4
2023-03-13T09:15:01.442Z,14.5
2023-03-13T09:16:01.091Z,14.5
2023-03-13T09:17:01.626Z,14.7
2023-03-13T09:18:01.306Z,14.8
2023-03-13T09:19:00.853Z,14.9
2023-03-13T09:20:01.503Z,14.8
2023-03-13T09:21:01.126Z,14.8
2023-03-13T09:22:01.625Z,14.8
2023-03-13T09:23:01.226Z,14.8
2023-03-13T09:24:00.819Z,14.8
2023-03-13T09:25:01.383Z,14.8
2023-03-13T09:26:00.988Z,14.7
2023-03-13T09:27:01.877Z,15
2023-03-13T09:28:01.217Z,15
2023-03-13T09:29:00.801Z,14.9
2023-03-13T09:30:01.402Z,15
2023-03-13T09:31:01.057Z,15.2
2023-03-13T09:32:01.566Z,15.3
2023-03-13T09:33:01.228Z,15.3
2023-03-13T09:34:01.749Z,15.1
2023-03-13T09:35:01.383Z,15.2
2023-03-13T09:36:01.040Z,15.1
2023-03-13T09:37:01.579Z,15
2023-03-13T09:38:01.174Z,14.9
2023-03-13T09:39:00.756Z,14.9
2023-03-13T09:40:01.350Z,14.9
2023-03-13T09:41:06.114Z,15
2023-03-13T09:42:01.518Z,15
2023-03-13T09:43:01.128Z,15
2023-03-13T09:44:01.712Z,15.3
2023-03-13T09:45:01.322Z,15.3
2023-03-13T09:46:00.935Z,15.2
2023-03-13T09:47:01.547Z,15.2
2023-03-13T09:48:01.145Z,15.2
2023-03-13T09:49:01.748Z,15.2
2023-03-13T09:50:01.338Z,15.1
2023-03-13T09:51:00.952Z,15.1
2023-03-13T09:52:01.515Z,15
2023-03-13T09:53:01.114Z,14.8
2023-03-13T09:54:01.719Z,14.8
2023-03-13T09:55:01.313Z,15
2023-03-13T09:56:00.905Z,14.9
2023-03-13T09:57:01.486Z,14.8
2023-03-13T09:58:01.075Z,14.7
2023-03-13T09:59:01.685Z,14.7
2023-03-13T10:00:01.284Z,14.9
2023-03-13T10:01:00.882Z,14.9
2023-03-13T10:02:01.574Z,14.9
2023-03-13T10:03:01.118Z,15.1
2023-03-13T10:04:01.761Z,15
2023-03-13T10:05:01.357Z,15.1
2023-03-13T10:06:00.955Z,15.3
2023-03-13T10:07:01.573Z,15.4
2023-03-13T10:08:01.170Z,15.5
2023-03-13T10:09:00.752Z,15.4
2023-03-13T10:10:01.345Z,15
2023-03-13T10:11:00.975Z,15.2
2023-03-13T10:12:01.522Z,14.9
2023-03-13T10:13:01.115Z,14.7
2023-03-13T10:14:01.706Z,14.6
2023-03-13T10:15:01.299Z,14.7
2023-03-13T10:16:01.242Z,14.8
2023-03-13T10:17:01.463Z,14.8
2023-03-13T10:18:01.050Z,14.7
2023-03-13T10:19:01.634Z,14.8
2023-03-13T10:20:01.259Z,14.8
2023-03-13T10:21:00.824Z,14.8
2023-03-13T10:22:00.788Z,14.8
2023-03-13T10:23:01.530Z,15
2023-03-13T10:24:01.640Z,15.1
2023-03-13T10:25:01.259Z,14.9
2023-03-13T10:26:00.812Z,14.9
2023-03-13T10:27:01.400Z,15
2023-03-13T10:28:01.052Z,15.2
2023-03-13T10:29:01.612Z,15.3
2023-03-13T10:30:01.275Z,15.5
2023-03-13T10:31:00.798Z,15.4
2023-03-13T10:32:01.416Z,15.5
2023-03-13T10:33:01.090Z,15.7
2023-03-13T10:34:01.605Z,15.8
2023-03-13T10:35:01.225Z,15.8
2023-03-13T10:36:00.847Z,15.7
2023-03-13T10:37:01.393Z,15.5
2023-03-13T10:38:00.985Z,15.5
2023-03-13T10:39:01.594Z,15.4
2023-03-13T10:40:01.213Z,15.4
2023-03-13T10:41:00.775Z,15.4
2023-03-13T10:42:01.352Z,15.6
2023-03-13T10:43:00.948Z,15.7
2023-03-13T10:44:01.536Z,15.7
2023-03-13T10:45:01.144Z,15.7
2023-03-13T10:46:01.717Z,15.8
2023-03-13T10:47:01.346Z,15.8
2023-03-13T10:48:00.951Z,15.7
2023-03-13T10:49:01.540Z,15.6
2023-03-13T10:50:01.156Z,15.7
2023-03-13T10:51:02.487Z,15.9
2023-03-13T10:52:01.141Z,16
2023-03-13T10:53:00.795Z,15.9
2023-03-13T10:54:01.341Z,16
2023-03-13T10:55:00.995Z,16
2023-03-13T10:56:01.541Z,15.9
2023-03-13T10:57:01.154Z,16.1
2023-03-13T10:58:01.726Z,16.2
2023-03-13T10:59:01.311Z,16
2023-03-13T11:00:03.160Z,16
2023-03-13T11:01:01.481Z,15.9
2023-03-13T11:02:01.095Z,16
2023-03-13T11:03:01.821Z,16.2
2023-03-13T11:04:01.492Z,16.2
2023-03-13T11:05:00.934Z,16.3
2023-03-13T11:06:01.496Z,16.4
2023-03-13T11:07:01.100Z,16.3
2023-03-13T11:08:01.702Z,16.4
2023-03-13T11:09:01.292Z,16.4
2023-03-13T11:10:00.913Z,16.4
2023-03-13T11:11:01.528Z,16.1
2023-03-13T11:12:01.119Z,16.1
2023-03-13T11:13:01.701Z,16.2
2023-03-13T11:14:01.290Z,16.2
2023-03-13T11:15:01.069Z,16.2
2023-03-13T11:16:01.549Z,16.2
2023-03-13T11:17:01.157Z,16.1
2023-03-13T11:18:01.716Z,16.2
2023-03-13T11:19:01.312Z,16.3
2023-03-13T11:20:00.898Z,16.5
2023-03-13T11:21:15.823Z,16.6
2023-03-13T11:22:01.178Z,16.7
2023-03-13T11:23:01.734Z,16.8
2023-03-13T11:24:01.330Z,16.8
2023-03-13T11:25:00.919Z,16.5
2023-03-13T11:26:01.507Z,16.4
2023-03-13T11:27:04.881Z,16.6
2023-03-13T11:28:01.698Z,16.4
2023-03-13T11:29:01.306Z,16.6
2023-03-13T11:30:00.954Z,16.6
2023-03-13T11:31:01.480Z,16.7
2023-03-13T11:32:01.093Z,16.6
2023-03-13T11:33:01.786Z,16.8
2023-03-13T11:34:01.319Z,16.8
2023-03-13T11:35:00.906Z,16.8
2023-03-13T11:36:01.614Z,16.8
2023-03-13T11:37:01.143Z,16.6
2023-03-13T11:38:01.744Z,16.7
2023-03-13T11:39:01.331Z,16.8
2023-03-13T11:40:00.917Z,16.6
2023-03-13T11:41:01.502Z,16.8
2023-03-13T11:42:01.133Z,16.8
2023-03-13T11:43:04.830Z,16.8
2023-03-13T11:44:01.221Z,16.7
2023-03-13T11:45:00.809Z,16.7
2023-03-13T11:46:01.493Z,16.6
2023-03-13T11:47:01.382Z,16.5
2023-03-13T11:48:01.639Z,16.5
2023-03-13T11:49:01.229Z,16.5
2023-03-13T11:50:00.813Z,16.4
2023-03-13T11:51:01.425Z,16.4
2023-03-13T11:52:01.062Z,16.5
2023-03-13T11:53:01.638Z,16.5
2023-03-13T11:54:02.123Z,16.5
2023-03-13T11:55:01.093Z,16.4
2023-03-13T11:56:01.417Z,16.5
2023-03-13T11:57:01.031Z,16.6
2023-03-13T11:58:01.600Z,16.7
2023-03-13T11:59:01.222Z,16.6
2023-03-13T12:00:00.771Z,16.4
2023-03-13T12:01:01.399Z,16.6
2023-03-13T12:02:01.161Z,16.8
2023-03-13T12:03:01.619Z,16.7
2023-03-13T12:04:01.207Z,16.9
2023-03-13T12:05:00.853Z,16.8
2023-03-13T12:06:01.364Z,16.9
2023-03-13T12:07:03.050Z,17
2023-03-13T12:08:01.523Z,17.1
2023-03-13T12:09:01.125Z,17.1
2023-03-13T12:10:01.755Z,17.4
2023-03-13T12:11:01.344Z,17.2
2023-03-13T12:12:00.939Z,17.3
2023-03-13T12:13:01.511Z,17.3
2023-03-13T12:14:01.101Z,17.4
2023-03-13T12:15:01.754Z,17.3
2023-03-13T12:16:01.347Z,17.3
2023-03-13T12:17:00.916Z,17.2
2023-03-13T12:18:01.497Z,17.1
2023-03-13T12:19:01.087Z,17.1
2023-03-13T12:20:01.698Z,17.2
2023-03-13T12:21:01.306Z,17.2
2023-03-13T12:22:00.921Z,17.2
2023-03-13T12:23:01.549Z,17.2
2023-03-13T12:24:01.196Z,17
2023-03-13T12:25:03.275Z,17.1
2023-03-13T12:26:01.258Z,17.1
2023-03-13T12:27:00.856Z,16.9
2023-03-13T12:28:01.484Z,17.1
2023-03-13T12:29:01.108Z,17
2023-03-13T12:30:01.685Z,16.8
2023-03-13T12:31:01.393Z,16.9
2023-03-13T12:32:00.920Z,16.9
2023-03-13T12:33:01.594Z,17
2023-03-13T12:34:01.174Z,17
2023-03-13T12:35:01.739Z,17
2023-03-13T12:36:01.322Z,17.1
2023-03-13T12:37:00.949Z,17.3
2023-03-13T12:38:01.517Z,17.3
2023-03-13T12:39:01.111Z,17.3
2023-03-13T12:40:01.686Z,17.1
2023-03-13T12:41:01.277Z,16.9
2023-03-13T12:42:00.884Z,16.7
2023-03-13T12:43:01.452Z,16.5
2023-03-13T12:44:08.604Z,16.6
2023-03-13T12:45:01.602Z,16.6
2023-03-13T12:46:01.286Z,16.8
2023-03-13T12:47:00.827Z,16.8
2023-03-13T12:48:01.432Z,16.8
2023-03-13T12:49:01.030Z,16.8
2023-03-13T12:50:01.601Z,16.8
2023-03-13T12:51:01.192Z,16.7
2023-03-13T12:52:00.790Z,16.8
2023-03-13T12:53:01.372Z,16.7
2023-03-13T12:54:01.009Z,16.8
2023-03-13T12:55:01.601Z,16.9
2023-03-13T12:56:01.196Z,16.8
2023-03-13T12:57:00.786Z,16.8
2023-03-13T12:58:01.477Z,16.8
2023-03-13T12:59:01.037Z,16.9
2023-03-13T13:00:01.615Z,17
2023-03-13T13:01:01.229Z,16.8
2023-03-13T13:02:00.797Z,16.8
2023-03-13T13:03:01.430Z,16.8
2023-03-13T13:04:01.114Z,16.7
2023-03-13T13:05:01.628Z,16.7
2023-03-13T13:06:01.235Z,16.8
2023-03-13T13:07:00.797Z,17
2023-03-13T13:08:01.385Z,17.1
2023-03-13T13:09:00.991Z,17.1
2023-03-13T13:10:01.569Z,17.1
2023-03-13T13:11:01.176Z,17
2023-03-13T13:12:01.751Z,16.9
2023-03-13T13:13:01.335Z,17.2
2023-03-13T13:14:00.947Z,17.2
2023-03-13T13:15:01.535Z,17.1
2023-03-13T13:16:01.201Z,16.9
2023-03-13T13:17:01.723Z,16.7
2023-03-13T13:18:01.338Z,16.6
2023-03-13T13:19:00.982Z,16.6
2023-03-13T13:20:01.565Z,16.8
2023-03-13T13:21:01.160Z,16.8
2023-03-13T13:22:01.796Z,16.8
2023-03-13T13:23:01.399Z,16.8
2023-03-13T13:24:01.059Z,16.8
2023-03-13T13:25:01.571Z,16.8
2023-03-13T13:26:01.167Z,16.9
2023-03-13T13:27:01.755Z,16.8
2023-03-13T13:28:01.358Z,16.8
2023-03-13T13:29:00.973Z,16.8